Time;durP1;ratioP1;P1;durP2;ratioP2;P2;SDS_P1;SDS_P2;PMS_P1;PMS_P2;Temp;Humidity;BMP_temperature;BMP_pressure;BME280_temperature;BME280_humidity;BME280_pressure;Samples;Min_cycle;Max_cycle;Signal;HPM_P1;HPM_P2
2022/07/26 00:01:55;;;;;;;1.13;0.45;;;17.90;94.10;;;;;;6157144;23;20436;-90
2022/07/26 00:04:23;;;;;;;0.73;0.30;;;17.90;94.10;;;;;;6158651;23;20029;-91
2022/07/26 00:06:50;;;;;;;0.52;0.25;;;17.90;94.10;;;;;;6158921;23;20023;-91
2022/07/26 00:09:17;;;;;;;0.47;0.20;;;17.90;94.20;;;;;;6158456;23;20016;-91
2022/07/26 00:11:44;;;;;;;0.35;0.30;;;17.90;94.30;;;;;;6159078;23;20025;-91
2022/07/26 00:14:11;;;;;;;0.80;0.52;;;17.90;94.40;;;;;;6169441;23;20031;-89
2022/07/26 00:16:38;;;;;;;0.68;0.30;;;17.70;94.50;;;;;;6161046;23;20071;-92
2022/07/26 00:19:09;;;;;;;0.60;0.40;;;17.70;94.60;;;;;;6161584;23;20019;-92
2022/07/26 00:21:36;;;;;;;1.88;0.60;;;17.60;94.70;;;;;;6163902;23;20058;-90
2022/07/26 00:24:07;;;;;;;2.45;0.98;;;17.60;94.90;;;;;;6166238;23;20017;-90
2022/07/26 00:26:34;;;;;;;1.42;0.70;;;17.50;95.10;;;;;;6169693;23;20021;-90
2022/07/26 00:29:03;;;;;;;0.80;0.40;;;17.50;95.20;;;;;;6171677;23;20306;-90
2022/07/26 00:31:30;;;;;;;2.55;0.70;;;17.40;95.30;;;;;;6166427;23;20028;-91
2022/07/26 00:33:58;;;;;;;0.50;0.40;;;17.40;95.50;;;;;;6167090;23;20016;-90
2022/07/26 00:36:28;;;;;;;0.60;0.38;;;17.40;95.50;;;;;;6168227;23;20343;-91
2022/07/26 00:39:00;;;;;;;1.38;0.38;;;17.40;95.70;;;;;;6181442;23;20030;-90
2022/07/26 00:41:34;;;;;;;1.00;0.40;;;17.40;95.60;;;;;;6162505;23;20399;-91
2022/07/26 00:44:04;;;;;;;0.70;0.38;;;17.40;95.70;;;;;;6165520;23;20030;-90
2022/07/26 00:46:31;;;;;;;0.45;0.20;;;17.30;95.80;;;;;;6167219;22;20031;-91
2022/07/26 00:48:59;;;;;;;0.65;0.30;;;17.30;95.80;;;;;;6208901;23;20009;-90
2022/07/26 00:51:27;;;;;;;1.10;0.50;;;17.40;95.80;;;;;;6172843;23;20082;-93
2022/07/26 00:53:54;;;;;;;1.23;0.40;;;17.30;95.80;;;;;;6160827;23;20058;-90
2022/07/26 00:56:21;;;;;;;0.65;0.52;;;17.30;96.00;;;;;;6159957;23;20090;-92
2022/07/26 00:58:48;;;;;;;0.52;0.30;;;17.30;96.10;;;;;;6158921;23;20023;-89
2022/07/26 01:01:18;;;;;;;0.95;0.63;;;17.30;96.00;;;;;;6183894;23;20021;-88
2022/07/26 01:03:47;;;;;;;0.82;0.45;;;17.30;96.10;;;;;;6161307;23;20044;-89
2022/07/26 01:06:14;;;;;;;1.27;0.47;;;17.30;96.00;;;;;;6159981;23;20203;-91
2022/07/26 01:08:43;;;;;;;0.68;0.40;;;17.30;96.10;;;;;;6160847;23;20158;-91
2022/07/26 01:11:11;;;;;;;1.25;0.40;;;17.30;96.10;;;;;;6159921;23;20016;-90
2022/07/26 01:13:48;;;;;;;0.80;0.43;;;17.30;96.20;;;;;;6158853;23;20453;-90
2022/07/26 01:16:16;;;;;;;0.95;0.40;;;17.30;96.20;;;;;;6166789;23;20017;-90
2022/07/26 01:18:43;;;;;;;1.15;0.60;;;17.30;96.30;;;;;;6214986;23;20025;-90
2022/07/26 01:21:10;;;;;;;1.15;0.50;;;17.20;96.30;;;;;;6160339;23;20028;-91
2022/07/26 01:23:40;;;;;;;1.02;0.40;;;17.30;96.40;;;;;;6179131;23;20064;-90
2022/07/26 01:26:07;;;;;;;0.65;0.40;;;17.20;96.50;;;;;;6194565;23;20111;-90
2022/07/26 01:28:37;;;;;;;0.65;0.38;;;17.20;96.60;;;;;;6163573;23;20071;-92
2022/07/26 01:31:06;;;;;;;0.77;0.40;;;17.20;96.60;;;;;;6164671;23;20075;-91
2022/07/26 01:33:33;;;;;;;0.95;0.43;;;17.20;96.70;;;;;;6165284;23;20025;-91
2022/07/26 01:36:00;;;;;;;0.80;0.35;;;17.20;96.80;;;;;;6164719;23;20035;-92
2022/07/26 01:38:28;;;;;;;1.13;0.63;;;17.20;96.80;;;;;;6174547;23;20031;-91
2022/07/26 01:40:55;;;;;;;1.00;0.45;;;17.20;96.90;;;;;;6166068;23;20019;-92
2022/07/26 01:43:22;;;;;;;0.38;0.38;;;17.20;96.90;;;;;;6169015;22;20040;-90
2022/07/26 01:48:18;;;;;;;1.10;0.47;;;17.30;96.90;;;;;;6151737;23;20040;-94
2022/07/26 01:50:45;;;;;;;0.98;0.47;;;17.30;96.90;;;;;;6127510;23;20325;-92
2022/07/26 01:53:12;;;;;;;0.47;0.30;;;17.30;97.00;;;;;;6127838;23;20101;-94
2022/07/26 01:55:39;;;;;;;0.75;0.40;;;17.30;97.00;;;;;;6129457;23;20100;-93
2022/07/26 01:58:06;;;;;;;0.50;0.30;;;17.40;97.00;;;;;;6128259;23;20021;-93
2022/07/26 02:00:36;;;;;;;0.50;0.20;;;17.40;97.00;;;;;;6130973;23;20421;-92
2022/07/26 02:03:04;;;;;;;0.80;0.40;;;17.40;97.10;;;;;;6131736;23;20306;-90
2022/07/26 02:05:31;;;;;;;2.05;0.68;;;17.40;97.00;;;;;;6130413;23;20503;-92
2022/07/26 02:07:58;;;;;;;2.78;0.63;;;17.40;97.20;;;;;;6128549;23;20079;-92
2022/07/26 02:10:59;;;;;;;1.77;0.60;;;17.30;97.20;;;;;;6128815;23;20175;-90
2022/07/26 02:13:13;;;;;;;1.33;0.73;;;17.30;97.30;;;;;;6152963;23;20025;-91
2022/07/26 02:15:40;;;;;;;1.35;0.65;;;17.30;97.50;;;;;;6130907;23;20025;-92
2022/07/26 02:18:07;;;;;;;1.58;0.68;;;17.30;97.70;;;;;;6131614;23;20039;-93
2022/07/26 02:20:34;;;;;;;1.77;0.95;;;17.30;97.80;;;;;;6137282;23;20496;-89
2022/07/26 02:23:01;;;;;;;1.05;0.63;;;17.30;97.60;;;;;;6134950;23;20576;-91
2022/07/26 02:25:29;;;;;;;0.75;0.40;;;17.30;97.60;;;;;;6162526;23;20029;-91
2022/07/26 02:27:56;;;;;;;1.65;0.65;;;17.40;97.70;;;;;;6138688;23;20017;-90
2022/07/26 02:30:24;;;;;;;3.00;0.70;;;17.40;97.60;;;;;;6141744;23;20022;-92
2022/07/26 02:32:51;;;;;;;0.77;0.60;;;17.40;97.70;;;;;;6148338;23;20080;-92
2022/07/26 02:35:19;;;;;;;1.42;0.65;;;17.30;97.80;;;;;;6146952;23;20021;-91
2022/07/26 02:37:46;;;;;;;0.93;0.50;;;17.30;97.90;;;;;;6140384;23;20017;-90
2022/07/26 02:40:13;;;;;;;0.85;0.63;;;17.40;98.00;;;;;;6132975;23;20431;-93
2022/07/26 02:42:45;;;;;;;0.75;0.40;;;17.40;98.00;;;;;;6133242;23;20036;-93
2022/07/26 02:45:12;;;;;;;1.30;0.63;;;17.40;98.20;;;;;;6131463;23;20025;-90
2022/07/26 02:47:49;;;;;;;1.00;0.63;;;17.40;98.30;;;;;;6154045;23;20021;-90
2022/07/26 02:50:17;;;;;;;1.45;0.75;;;17.40;98.50;;;;;;6191523;23;20016;-91
2022/07/26 02:52:46;;;;;;;2.15;0.70;;;17.40;98.70;;;;;;6189400;23;20040;-90
2022/07/26 02:55:14;;;;;;;0.98;0.55;;;17.40;98.90;;;;;;6186338;23;20021;-90
2022/07/26 02:57:42;;;;;;;0.75;0.50;;;17.30;99.00;;;;;;6184808;23;20017;-90
2022/07/26 03:00:13;;;;;;;1.55;0.70;;;17.30;99.20;;;;;;6187483;23;20220;-90
2022/07/26 03:02:40;;;;;;;0.93;0.52;;;17.20;99.50;;;;;;6191362;23;20042;-88
2022/07/26 03:05:08;;;;;;;1.27;0.70;;;17.20;99.70;;;;;;6184998;23;20025;-90
2022/07/26 03:07:36;;;;;;;1.33;0.60;;;17.20;99.90;;;;;;6184884;23;20087;-89
2022/07/26 03:10:03;;;;;;;1.75;0.80;;;17.20;99.90;;;;;;6184721;23;20023;-90
2022/07/26 03:12:31;;;;;;;0.98;0.60;;;17.10;99.90;;;;;;6185545;23;20025;-90
2022/07/26 03:14:58;;;;;;;1.10;0.60;;;17.20;99.90;;;;;;6187212;23;20027;-90
2022/07/26 03:17:25;;;;;;;2.50;0.70;;;17.20;99.90;;;;;;6185516;23;20448;-91
2022/07/26 03:19:53;;;;;;;1.95;0.98;;;17.20;99.90;;;;;;6185712;23;20096;-92
2022/07/26 03:22:20;;;;;;;1.40;0.70;;;17.20;99.90;;;;;;6185625;23;20171;-91
2022/07/26 03:24:47;;;;;;;2.05;1.10;;;17.10;99.90;;;;;;6185574;23;20199;-92
2022/07/26 03:27:14;;;;;;;0.90;0.60;;;17.10;99.90;;;;;;6186423;23;20044;-93
2022/07/26 03:29:41;;;;;;;2.17;0.90;;;17.10;99.90;;;;;;6183560;23;20501;-92
2022/07/26 03:32:08;;;;;;;1.55;0.68;;;17.10;99.90;;;;;;6187339;23;20132;-92
2022/07/26 03:34:36;;;;;;;1.73;1.00;;;17.10;99.90;;;;;;6185530;23;20409;-90
2022/07/26 03:37:03;;;;;;;0.82;0.45;;;17.00;99.90;;;;;;6185139;23;20016;-92
2022/07/26 03:39:30;;;;;;;0.95;0.60;;;17.10;99.90;;;;;;6185422;23;20078;-91
2022/07/26 03:41:57;;;;;;;0.93;0.40;;;17.10;99.90;;;;;;6187795;23;20016;-90
2022/07/26 03:44:24;;;;;;;1.02;0.50;;;17.10;99.90;;;;;;6195305;23;20359;-92
2022/07/26 03:46:52;;;;;;;0.85;0.60;;;17.10;99.90;;;;;;6189492;23;20031;-90
2022/07/26 03:49:19;;;;;;;0.82;0.57;;;17.00;99.90;;;;;;6184410;23;20092;-92
2022/07/26 03:51:47;;;;;;;1.77;0.82;;;17.00;99.90;;;;;;6184462;23;20020;-91
2022/07/26 03:54:14;;;;;;;0.75;0.70;;;17.00;99.90;;;;;;6186458;23;20016;-92
2022/07/26 03:56:41;;;;;;;1.55;0.68;;;17.00;99.90;;;;;;6188262;23;20025;-90
2022/07/26 03:59:09;;;;;;;1.10;0.60;;;17.00;99.90;;;;;;6203059;23;20016;-90
2022/07/26 04:01:40;;;;;;;1.27;0.88;;;17.00;99.90;;;;;;6190231;23;20017;-90
2022/07/26 04:04:08;;;;;;;2.08;0.75;;;17.00;99.90;;;;;;6200063;23;20020;-94
2022/07/26 04:06:37;;;;;;;2.10;0.73;;;17.00;99.90;;;;;;6199245;23;20139;-91
2022/07/26 04:09:04;;;;;;;1.17;0.60;;;17.00;99.90;;;;;;6189236;23;20021;-93
2022/07/26 04:11:32;;;;;;;3.15;0.55;;;17.00;99.90;;;;;;6186806;23;20071;-94
2022/07/26 04:14:02;;;;;;;4.00;0.85;;;16.90;99.90;;;;;;6186323;23;20352;-92
2022/07/26 04:16:29;;;;;;;0.70;0.65;;;16.90;99.90;;;;;;6186333;23;20028;-90
2022/07/26 04:18:56;;;;;;;1.73;0.60;;;16.90;99.90;;;;;;6184577;23;20020;-92
2022/07/26 04:21:25;;;;;;;0.82;0.47;;;16.90;99.90;;;;;;6185958;23;20380;-90
2022/07/26 04:23:52;;;;;;;0.90;0.50;;;16.90;99.90;;;;;;6184506;23;20233;-89
2022/07/26 04:26:20;;;;;;;1.33;0.60;;;16.90;99.90;;;;;;6184926;23;20021;-90
2022/07/26 04:28:47;;;;;;;0.68;0.43;;;16.90;99.90;;;;;;6183602;23;20328;-88
2022/07/26 04:31:14;;;;;;;0.50;0.40;;;16.90;99.90;;;;;;6183736;23;20025;-90
2022/07/26 04:33:41;;;;;;;1.40;0.70;;;17.00;99.90;;;;;;6187531;23;20094;-92
2022/07/26 04:36:09;;;;;;;0.75;0.50;;;16.90;99.90;;;;;;6188927;23;20016;-89
2022/07/26 04:38:36;;;;;;;1.67;0.85;;;16.90;99.90;;;;;;6185234;23;20021;-91
2022/07/26 04:41:03;;;;;;;1.00;0.45;;;16.80;99.90;;;;;;6184124;23;20028;-88
2022/07/26 04:43:30;;;;;;;1.02;0.50;;;16.90;99.90;;;;;;6183795;23;20074;-91
2022/07/26 04:45:57;;;;;;;1.30;0.60;;;16.90;99.90;;;;;;6184693;23;20021;-90
2022/07/26 04:48:24;;;;;;;0.82;0.45;;;16.90;99.90;;;;;;6183819;23;20464;-90
2022/07/26 04:50:52;;;;;;;1.05;0.70;;;16.90;99.90;;;;;;6209310;23;20030;-91
2022/07/26 04:53:19;;;;;;;1.15;0.60;;;16.80;99.90;;;;;;6183824;23;20016;-89
2022/07/26 04:55:46;;;;;;;0.98;0.80;;;16.90;99.90;;;;;;6182602;23;20103;-93
2022/07/26 04:58:13;;;;;;;0.75;0.50;;;16.80;99.90;;;;;;6183703;23;20020;-88
2022/07/26 05:00:44;;;;;;;0.65;0.32;;;16.80;99.90;;;;;;6184843;23;20025;-88
2022/07/26 05:03:33;;;;;;;0.35;0.32;;;16.90;99.90;;;;;;6189376;23;20024;-88
2022/07/26 05:06:01;;;;;;;1.08;0.35;;;16.90;99.90;;;;;;6188064;23;20021;-88
2022/07/26 05:08:31;;;;;;;0.70;0.40;;;17.00;99.90;;;;;;6197974;23;20036;-89
2022/07/26 05:10:58;;;;;;;0.52;0.40;;;17.00;99.90;;;;;;6193320;23;20020;-90
2022/07/26 05:13:26;;;;;;;0.55;0.30;;;17.00;99.90;;;;;;6188116;23;20016;-90
2022/07/26 05:15:57;;;;;;;0.32;0.30;;;17.00;99.90;;;;;;6188624;23;20507;-89
2022/07/26 05:18:30;;;;;;;0.50;0.40;;;16.90;99.90;;;;;;6190183;23;20355;-90
2022/07/26 05:21:15;;;;;;;0.77;0.40;;;16.90;99.90;;;;;;6193710;23;20021;-89
2022/07/26 05:23:45;;;;;;;0.88;0.50;;;16.90;99.90;;;;;;6195685;23;20036;-90
2022/07/26 05:26:12;;;;;;;0.50;0.38;;;16.90;99.90;;;;;;6193708;23;20052;-91
2022/07/26 05:28:39;;;;;;;0.65;0.45;;;17.00;99.90;;;;;;6174182;23;20013;-90
2022/07/26 05:31:07;;;;;;;0.20;0.20;;;17.00;99.90;;;;;;6193920;23;20027;-90
2022/07/26 05:33:35;;;;;;;0.30;0.30;;;17.10;99.90;;;;;;6193787;23;20024;-88
2022/07/26 05:36:02;;;;;;;0.82;0.40;;;17.10;99.90;;;;;;6188712;23;20116;-89
2022/07/26 05:38:30;;;;;;;0.75;0.40;;;17.10;99.90;;;;;;6191289;23;20017;-88
2022/07/26 05:40:58;;;;;;;0.82;0.40;;;17.10;99.90;;;;;;6190548;23;20032;-88
2022/07/26 05:43:26;;;;;;;0.68;0.50;;;17.00;99.90;;;;;;6192554;23;20071;-87
2022/07/26 05:46:07;;;;;;;0.75;0.40;;;17.00;99.90;;;;;;6196181;23;20016;-88
2022/07/26 05:48:36;;;;;;;1.05;0.50;;;16.90;99.90;;;;;;6193441;23;20132;-89
2022/07/26 05:51:04;;;;;;;1.05;0.40;;;16.90;99.90;;;;;;6193157;23;20029;-88
2022/07/26 05:53:31;;;;;;;1.00;0.30;;;16.90;99.90;;;;;;6191661;23;20016;-88
2022/07/26 05:55:59;;;;;;;0.30;0.30;;;16.90;99.90;;;;;;6194176;23;20095;-90
2022/07/26 05:58:28;;;;;;;1.67;0.40;;;16.90;99.90;;;;;;6194776;23;20016;-89
2022/07/26 06:00:55;;;;;;;0.55;0.40;;;16.90;99.90;;;;;;6194770;23;20021;-88
2022/07/26 06:03:22;;;;;;;1.02;0.40;;;16.90;99.90;;;;;;6194456;23;20024;-89
2022/07/26 06:05:56;;;;;;;0.88;0.40;;;16.80;99.90;;;;;;6199128;23;20054;-91
2022/07/26 06:08:24;;;;;;;1.65;0.77;;;16.80;99.90;;;;;;6194434;23;20100;-88
2022/07/26 06:10:51;;;;;;;0.73;0.40;;;16.70;99.90;;;;;;6187687;23;20438;-91
2022/07/26 06:13:18;;;;;;;0.63;0.40;;;16.70;99.90;;;;;;6188948;23;20013;-90
2022/07/26 06:15:46;;;;;;;0.40;0.28;;;16.70;99.90;;;;;;6189461;23;20038;-90
2022/07/26 06:18:13;;;;;;;0.52;0.40;;;16.70;99.90;;;;;;6191375;23;20023;-92
2022/07/26 06:20:41;;;;;;;0.98;0.45;;;16.60;99.90;;;;;;6189931;23;20100;-91
2022/07/26 06:23:08;;;;;;;0.70;0.40;;;16.40;99.90;;;;;;6188939;23;20017;-91
2022/07/26 06:25:35;;;;;;;0.70;0.50;;;16.30;99.90;;;;;;6188966;23;20017;-92
2022/07/26 06:28:03;;;;;;;0.65;0.50;;;16.20;99.90;;;;;;6188478;23;20028;-92
2022/07/26 06:30:30;;;;;;;0.20;0.20;;;16.20;99.90;;;;;;6189528;23;20302;-90
2022/07/26 06:32:58;;;;;;;0.50;0.35;;;16.20;99.90;;;;;;6188189;23;20017;-91
2022/07/26 06:35:29;;;;;;;0.47;0.32;;;16.10;99.90;;;;;;6188312;23;20021;-91
2022/07/26 06:37:59;;;;;;;0.40;0.30;;;16.20;99.90;;;;;;6191503;23;20392;-91
2022/07/26 06:40:29;;;;;;;0.28;0.28;;;16.20;99.90;;;;;;6197863;23;20020;-92
2022/07/26 06:42:58;;;;;;;0.38;0.32;;;16.30;99.90;;;;;;6187558;23;20096;-91
2022/07/26 06:45:30;;;;;;;0.70;0.32;;;16.40;99.90;;;;;;6190918;23;20079;-89
2022/07/26 06:47:58;;;;;;;0.30;0.30;;;16.50;99.90;;;;;;6188888;23;20090;-92
2022/07/26 06:50:25;;;;;;;0.32;0.32;;;16.60;99.90;;;;;;6190124;23;20142;-91
2022/07/26 06:52:56;;;;;;;0.40;0.20;;;16.70;99.90;;;;;;6190240;23;20120;-94
2022/07/26 06:55:42;;;;;;;0.70;0.50;;;16.70;99.90;;;;;;6190083;23;20016;-91
2022/07/26 06:58:11;;;;;;;0.30;0.30;;;16.80;99.90;;;;;;6190740;23;20021;-91
2022/07/26 07:00:38;;;;;;;0.65;0.50;;;16.90;99.90;;;;;;6189721;23;20016;-91
2022/07/26 07:03:06;;;;;;;0.45;0.40;;;16.90;99.90;;;;;;6186129;23;20016;-91
2022/07/26 07:05:48;;;;;;;0.55;0.40;;;17.00;99.90;;;;;;6206008;23;20027;-90
2022/07/26 07:08:25;;;;;;;0.20;0.20;;;17.10;99.90;;;;;;6188157;23;20315;-90
2022/07/26 07:10:55;;;;;;;0.30;0.30;;;17.20;99.90;;;;;;6188023;23;20025;-91
2022/07/26 07:14:02;;;;;;;;;;;;;;;;;;;;;
2022/07/26 07:17:05;;;;;;;0.98;0.50;;;17.50;99.90;;;;;;6213674;23;20017;-91
2022/07/26 07:19:46;;;;;;;0.32;0.22;;;17.70;99.90;;;;;;6176596;23;20021;-91
2022/07/26 07:22:46;;;;;;;;;;;;;;;;;;;;;
2022/07/26 07:25:37;;;;;;;0.75;0.30;;;18.00;99.90;;;;;;6212239;23;20348;-91
2022/07/26 07:28:05;;;;;;;0.35;0.30;;;18.20;99.90;;;;;;6192616;23;20047;-91
2022/07/26 07:30:33;;;;;;;0.20;0.20;;;18.30;99.90;;;;;;6197659;23;20016;-91
2022/07/26 07:33:03;;;;;;;0.47;0.40;;;18.40;99.90;;;;;;6193566;23;20096;-91
2022/07/26 07:35:31;;;;;;;0.40;0.30;;;18.30;99.90;;;;;;6195828;23;20021;-92
2022/07/26 07:38:02;;;;;;;0.70;0.50;;;18.20;99.90;;;;;;6190606;23;20024;-90
2022/07/26 07:40:29;;;;;;;0.40;0.30;;;18.00;99.90;;;;;;6189602;23;20017;-91
2022/07/26 07:43:04;;;;;;;0.47;0.30;;;18.00;99.90;;;;;;6188112;23;20043;-91
2022/07/26 07:45:53;;;;;;;0.40;0.25;;;18.10;99.90;;;;;;6187798;23;20020;-92
2022/07/26 07:48:30;;;;;;;0.30;0.30;;;18.10;99.90;;;;;;6165923;23;20106;-91
2022/07/26 07:51:47;;;;;;;0.88;0.50;;;18.20;99.90;;;;;;6174335;23;20067;-90
2022/07/26 07:54:37;;;;;;;0.45;0.40;;;18.20;99.90;;;;;;6175139;23;20020;-90
2022/07/26 07:57:04;;;;;;;0.35;0.30;;;18.30;99.90;;;;;;6186258;23;20021;-91
2022/07/26 07:59:34;;;;;;;1.08;0.65;;;18.30;99.90;;;;;;6185904;23;20440;-90
2022/07/26 08:02:05;;;;;;;0.57;0.40;;;18.20;99.90;;;;;;6188284;23;20023;-91
2022/07/26 08:04:32;;;;;;;0.32;0.32;;;18.10;99.90;;;;;;6187540;23;20065;-91
2022/07/26 08:07:00;;;;;;;0.45;0.40;;;18.00;99.90;;;;;;6187049;23;20016;-92
2022/07/26 08:09:27;;;;;;;0.30;0.30;;;18.00;99.90;;;;;;6186507;23;20017;-90
2022/07/26 08:11:59;;;;;;;0.25;0.25;;;18.00;99.90;;;;;;6188044;23;20024;-91
2022/07/26 08:14:27;;;;;;;0.28;0.28;;;18.00;99.90;;;;;;6190980;23;20055;-91
2022/07/26 08:16:56;;;;;;;0.30;0.30;;;18.00;99.90;;;;;;6187372;23;20488;-93
2022/07/26 08:19:27;;;;;;;0.35;0.35;;;18.10;99.90;;;;;;6187344;23;20017;-91
2022/07/26 08:22:09;;;;;;;0.40;0.40;;;18.20;99.90;;;;;;6191213;23;20040;-92
2022/07/26 08:24:36;;;;;;;0.63;0.40;;;18.30;99.90;;;;;;6185782;23;20095;-93
2022/07/26 08:27:03;;;;;;;0.50;0.30;;;18.50;99.90;;;;;;6189765;23;20464;-91
2022/07/26 08:29:30;;;;;;;0.47;0.40;;;18.60;99.90;;;;;;6195931;23;20044;-91
2022/07/26 08:32:01;;;;;;;0.30;0.30;;;18.90;99.90;;;;;;6191915;23;20021;-91
2022/07/26 08:34:28;;;;;;;0.82;0.68;;;18.90;99.90;;;;;;6188070;23;20277;-92
2022/07/26 08:36:55;;;;;;;0.70;0.65;;;18.90;99.90;;;;;;6189417;23;20020;-91
2022/07/26 08:39:45;;;;;;;0.55;0.52;;;18.80;99.90;;;;;;6199495;23;20077;-91
2022/07/26 08:42:57;;;;;;;0.60;0.60;;;18.80;99.90;;;;;;6086252;23;20080;-92
2022/07/26 08:45:26;;;;;;;0.90;0.75;;;18.70;99.90;;;;;;6024874;23;20018;-90
2022/07/26 08:47:56;;;;;;;1.00;0.65;;;18.80;99.90;;;;;;6023917;23;20036;-91
2022/07/26 08:50:44;;;;;;;1.10;0.95;;;18.70;99.90;;;;;;6035600;23;20022;-92
2022/07/26 08:53:12;;;;;;;0.63;0.63;;;18.70;99.90;;;;;;6022838;23;20350;-91
2022/07/26 08:55:39;;;;;;;0.85;0.55;;;18.70;99.90;;;;;;6022991;23;20026;-93
2022/07/26 08:58:26;;;;;;;0.70;0.60;;;18.70;99.90;;;;;;6034103;23;20026;-91
2022/07/26 09:01:12;;;;;;;0.70;0.70;;;18.70;99.90;;;;;;6023059;23;20018;-93
2022/07/26 09:03:42;;;;;;;0.68;0.55;;;18.80;99.90;;;;;;6025034;23;20018;-91
2022/07/26 09:06:11;;;;;;;1.02;0.50;;;18.90;99.90;;;;;;6021990;23;20018;-92
2022/07/26 09:08:40;;;;;;;1.40;0.70;;;19.10;99.90;;;;;;6024128;23;20529;-92
2022/07/26 09:11:23;;;;;;;0.68;0.60;;;19.10;99.90;;;;;;6025743;23;20360;-93
2022/07/26 09:14:00;;;;;;;0.57;0.50;;;19.20;99.90;;;;;;6157575;23;20040;-92
2022/07/26 09:16:28;;;;;;;0.75;0.57;;;19.40;99.90;;;;;;6189715;23;20428;-91
2022/07/26 09:19:20;;;;;;;0.55;0.55;;;19.60;99.90;;;;;;6189032;23;20023;-92
2022/07/26 09:21:47;;;;;;;1.58;0.90;;;19.70;99.90;;;;;;6188590;23;20444;-91
2022/07/26 09:24:36;;;;;;;1.05;0.80;;;19.80;99.90;;;;;;6186603;23;20360;-92
2022/07/26 09:27:07;;;;;;;0.63;0.63;;;20.00;99.90;;;;;;6186404;23;20040;-91
2022/07/26 09:29:51;;;;;;;0.50;0.50;;;20.20;99.90;;;;;;6187522;23;20020;-92
2022/07/26 09:32:21;;;;;;;0.75;0.50;;;20.40;99.90;;;;;;6189425;23;20040;-91
2022/07/26 09:34:56;;;;;;;0.55;0.55;;;20.70;99.90;;;;;;6189317;23;20012;-92
2022/07/26 09:37:42;;;;;;;1.17;0.57;;;20.70;99.90;;;;;;6190107;23;20028;-92
2022/07/26 09:40:37;;;;;;;1.05;0.75;;;20.90;99.90;;;;;;6189859;23;20019;-91
2022/07/26 09:43:39;;;;;;;0.68;0.60;;;21.00;99.90;;;;;;6190483;23;20016;-91
2022/07/26 09:46:09;;;;;;;1.30;0.80;;;21.10;99.90;;;;;;6190027;23;20023;-91
2022/07/26 09:49:04;;;;;;;;;;;;;;;;;;;;;
2022/07/26 09:51:51;;;;;;;1.02;0.68;;;21.00;99.90;;;;;;6221343;23;20399;-90
2022/07/26 09:57:47;;;;;;;0.85;0.70;;;20.70;99.90;;;;;;6172929;23;20048;-93
2022/07/26 10:00:15;;;;;;;0.65;0.50;;;20.60;99.90;;;;;;6190990;23;20039;-93
2022/07/26 10:02:43;;;;;;;0.88;0.80;;;20.60;99.90;;;;;;6187391;23;20016;-93
2022/07/26 10:05:11;;;;;;;0.80;0.73;;;20.70;99.90;;;;;;6187440;23;20024;-90
2022/07/26 10:07:38;;;;;;;1.05;0.70;;;20.90;99.90;;;;;;6188123;23;20013;-90
2022/07/26 10:10:13;;;;;;;1.25;0.68;;;21.20;99.90;;;;;;6189139;23;20057;-91
2022/07/26 10:12:44;;;;;;;0.43;0.43;;;21.50;99.90;;;;;;6187593;23;20100;-91
2022/07/26 10:15:36;;;;;;;0.63;0.52;;;21.70;99.90;;;;;;6189561;23;20336;-90
2022/07/26 10:18:07;;;;;;;0.88;0.60;;;21.90;99.40;;;;;;6212769;23;20097;-90
2022/07/26 10:20:39;;;;;;;1.10;0.60;;;22.00;99.40;;;;;;6189673;23;20024;-92
2022/07/26 10:23:25;;;;;;;;;;;22.10;99.10;;;;;;6191326;23;20123;-92
2022/07/26 10:26:33;;;;;;;1.85;0.57;;;22.20;99.00;;;;;;6212838;23;19920;-92
2022/07/26 10:29:15;;;;;;;0.50;0.50;;;22.40;97.80;;;;;;6209548;23;20050;-91
2022/07/26 10:31:59;;;;;;;0.65;0.50;;;22.60;97.90;;;;;;6212502;23;20017;-92
2022/07/26 10:34:37;;;;;;;0.30;0.30;;;22.70;97.20;;;;;;6211846;23;20024;-91
2022/07/26 10:37:21;;;;;;;0.47;0.40;;;22.70;97.10;;;;;;6187326;23;20415;-92
2022/07/26 10:39:49;;;;;;;0.32;0.30;;;22.70;97.10;;;;;;6187424;23;20394;-91
2022/07/26 10:42:16;;;;;;;1.50;0.70;;;22.70;96.70;;;;;;6187174;23;20024;-91
2022/07/26 10:44:46;;;;;;;1.17;0.40;;;22.70;96.70;;;;;;6188321;23;20027;-91
2022/07/26 10:47:17;;;;;;;0.25;0.22;;;22.70;96.40;;;;;;6189936;23;20020;-92
2022/07/26 10:49:57;;;;;;;0.30;0.30;;;22.80;96.20;;;;;;6194377;23;20021;-92
2022/07/26 10:52:25;;;;;;;0.32;0.32;;;22.90;96.70;;;;;;6203170;23;20125;-91
2022/07/26 10:54:56;;;;;;;0.52;0.45;;;23.20;96.20;;;;;;6198489;23;20069;-91
2022/07/26 10:57:33;;;;;;;0.50;0.30;;;23.40;95.70;;;;;;6217471;23;20040;-91
2022/07/26 11:00:01;;;;;;;0.70;0.40;;;23.60;95.00;;;;;;6203085;23;20574;-91
2022/07/26 11:02:31;;;;;;;0.35;0.35;;;23.80;94.30;;;;;;6194306;23;20047;-92
2022/07/26 11:05:17;;;;;;;0.65;0.40;;;23.90;94.10;;;;;;6190294;23;20470;-92
2022/07/26 11:07:54;;;;;;;1.08;0.80;;;23.90;93.20;;;;;;6189045;23;20028;-92
2022/07/26 11:10:29;;;;;;;0.43;0.30;;;23.80;93.20;;;;;;6187052;23;20016;-90
2022/07/26 11:13:13;;;;;;;0.50;0.50;;;23.70;93.00;;;;;;6187503;23;20455;-91
2022/07/26 11:15:50;;;;;;;0.30;0.30;;;23.90;93.50;;;;;;6188769;23;20013;-92
2022/07/26 11:18:34;;;;;;;0.55;0.45;;;24.10;93.00;;;;;;6187499;23;20017;-92
2022/07/26 11:21:15;;;;;;;1.08;0.50;;;24.10;93.10;;;;;;6188737;23;20062;-91
2022/07/26 11:23:50;;;;;;;0.40;0.38;;;24.00;92.90;;;;;;6185723;23;20397;-91
2022/07/26 11:26:33;;;;;;;0.65;0.40;;;23.80;92.20;;;;;;6166016;23;20108;-93
2022/07/26 11:29:01;;;;;;;0.65;0.30;;;23.40;92.50;;;;;;6185297;23;20027;-92
2022/07/26 11:31:44;;;;;;;0.43;0.40;;;23.20;92.90;;;;;;6187756;23;20096;-92
2022/07/26 11:34:37;;;;;;;0.80;0.50;;;23.00;93.20;;;;;;6212734;23;20487;-92
2022/07/26 11:37:06;;;;;;;0.38;0.30;;;22.60;93.70;;;;;;6167334;23;20016;-91
2022/07/26 11:39:40;;;;;;;0.60;0.52;;;22.50;93.60;;;;;;6185952;23;20050;-91
2022/07/26 11:42:12;;;;;;;0.63;0.55;;;22.40;94.10;;;;;;6185769;23;20099;-90
2022/07/26 11:44:46;;;;;;;0.45;0.30;;;22.50;93.90;;;;;;6185030;23;20021;-91
2022/07/26 11:47:19;;;;;;;0.32;0.30;;;22.70;93.60;;;;;;6186186;23;20028;-92
2022/07/26 11:50:07;;;;;;;0.50;0.40;;;22.60;93.20;;;;;;6188939;23;20031;-91
2022/07/26 11:52:48;;;;;;;0.88;0.40;;;22.70;93.20;;;;;;6194298;23;20032;-91
2022/07/26 11:55:27;;;;;;;0.70;0.60;;;22.60;93.00;;;;;;6188045;23;20356;-91
2022/07/26 11:58:02;;;;;;;0.65;0.52;;;22.40;93.10;;;;;;6187327;23;20324;-90
2022/07/26 12:00:38;;;;;;;0.40;0.30;;;22.40;93.20;;;;;;6189285;23;20028;-92
2022/07/26 12:03:05;;;;;;;0.35;0.22;;;22.50;93.40;;;;;;6189438;23;20079;-93
2022/07/26 12:05:34;;;;;;;0.40;0.35;;;22.60;93.30;;;;;;6189592;23;20028;-95
2022/07/26 12:08:13;;;;;;;0.60;0.32;;;22.60;92.90;;;;;;6189913;23;20021;-90
2022/07/26 12:10:40;;;;;;;0.98;0.70;;;22.60;92.90;;;;;;6173526;23;20020;-92
2022/07/26 12:13:23;;;;;;;0.40;0.40;;;22.50;92.80;;;;;;6164167;23;20040;-91
2022/07/26 12:16:41;;;;;;;0.50;0.50;;;22.50;93.00;;;;;;6146812;23;20480;-91
2022/07/26 12:19:19;;;;;;;0.65;0.40;;;22.70;92.90;;;;;;6143332;23;20148;-91
2022/07/26 12:21:59;;;;;;;0.50;0.50;;;22.80;92.90;;;;;;6180846;23;20021;-91
2022/07/26 12:24:39;;;;;;;0.73;0.40;;;22.90;92.40;;;;;;6133066;23;20144;-91
2022/07/26 12:27:20;;;;;;;0.45;0.45;;;23.00;92.50;;;;;;6155376;23;20017;-92
2022/07/26 12:29:56;;;;;;;1.05;0.60;;;23.20;91.90;;;;;;6110765;23;20017;-90
2022/07/26 12:32:30;;;;;;;0.47;0.32;;;23.10;91.70;;;;;;6112983;23;20024;-90
2022/07/26 12:35:28;;;;;;;0.68;0.60;;;23.10;92.00;;;;;;6135653;23;20071;-93
2022/07/26 12:37:56;;;;;;;1.48;0.63;;;23.00;91.60;;;;;;6111768;23;20040;-91
2022/07/26 12:40:54;;;;;;;;;;;;;;;;;;;;;
2022/07/26 12:46:56;;;;;;;1.48;0.80;;;22.90;91.40;;;;;;6050967;23;20061;-91
2022/07/26 12:49:37;;;;;;;0.82;0.45;;;22.80;91.40;;;;;;6135033;23;20120;-91
2022/07/26 12:55:35;;;;;;;0.52;0.40;;;22.70;92.20;;;;;;6121852;23;20025;-92
2022/07/26 12:58:26;;;;;;;0.30;0.30;;;22.70;92.10;;;;;;6142138;23;20472;-93
2022/07/26 13:01:07;;;;;;;0.50;0.43;;;22.50;92.00;;;;;;6135829;23;20388;-92
2022/07/26 13:03:42;;;;;;;0.30;0.30;;;22.40;92.30;;;;;;6132078;23;20097;-91
2022/07/26 13:06:10;;;;;;;0.55;0.50;;;22.30;92.30;;;;;;6132392;23;20039;-92
2022/07/26 13:08:39;;;;;;;0.60;0.50;;;22.20;92.10;;;;;;6135480;23;20021;-92
2022/07/26 13:11:11;;;;;;;0.52;0.40;;;22.00;92.20;;;;;;6134577;23;20111;-93
2022/07/26 13:13:39;;;;;;;0.47;0.38;;;22.00;92.50;;;;;;6162306;23;20021;-92
2022/07/26 13:16:11;;;;;;;0.40;0.40;;;21.80;92.50;;;;;;6196943;23;20032;-92
2022/07/26 13:18:43;;;;;;;0.73;0.47;;;21.70;92.50;;;;;;6205928;23;20043;-91
2022/07/26 13:21:14;;;;;;;0.40;0.40;;;21.60;92.70;;;;;;6202719;23;20043;-92
2022/07/26 13:23:43;;;;;;;0.98;0.50;;;21.50;93.00;;;;;;6192972;23;20047;-92
2022/07/26 13:26:32;;;;;;;0.30;0.20;;;21.50;93.00;;;;;;6190269;23;20108;-91
2022/07/26 13:29:09;;;;;;;0.57;0.40;;;21.40;93.30;;;;;;6189106;23;20020;-92
2022/07/26 13:31:45;;;;;;;0.90;0.57;;;21.40;93.10;;;;;;6188797;23;20067;-93